Time;durP1;ratioP1;P1;durP2;ratioP2;P2;SDS_P1;SDS_P2;PMS_P1;PMS_P2;Temp;Humidity;BMP_temperature;BMP_pressure;BME280_temperature;BME280_humidity;BME280_pressure;Samples;Min_cycle;Max_cycle;Signal;HPM_P1;HPM_P2
2024/03/27 00:00:07;;;;;;;7.93;1.60;;;;;;;13.89;100.00;98438.47;5273090;28;20389;-76
2024/03/27 00:02:38;;;;;;;3.53;1.20;;;;;;;13.89;100.00;98422.31;5271101;28;20032;-75
2024/03/27 00:05:08;;;;;;;5.88;1.20;;;;;;;13.84;100.00;98422.22;5272108;28;20030;-75
2024/03/27 00:07:39;;;;;;;7.20;2.20;;;;;;;13.79;100.00;98431.06;5266439;28;20012;-75
2024/03/27 00:10:09;;;;;;;2.28;1.55;;;;;;;13.84;100.00;98431.13;5273381;28;20047;-75
2024/03/27 00:12:40;;;;;;;4.97;1.48;;;;;;;13.71;100.00;98423.41;5271961;28;20595;-75
2024/03/27 00:15:12;;;;;;;10.00;2.17;;;;;;;13.77;100.00;98426.97;5275437;28;20024;-75
2024/03/27 00:17:42;;;;;;;3.72;1.52;;;;;;;13.69;100.00;98431.69;5271687;28;20020;-75
2024/03/27 00:20:13;;;;;;;2.00;0.95;;;;;;;13.60;100.00;98425.09;5273610;28;20101;-75
2024/03/27 00:22:43;;;;;;;3.40;1.00;;;;;;;13.65;100.00;98424.34;5270577;28;20024;-75
2024/03/27 00:25:14;;;;;;;3.90;0.93;;;;;;;13.65;100.00;98422.47;5272684;28;20043;-75
2024/03/27 00:27:45;;;;;;;2.78;1.10;;;;;;;13.71;100.00;98418.00;5270721;28;20016;-75
2024/03/27 00:30:15;;;;;;;3.38;1.13;;;;;;;13.60;100.00;98416.19;5273326;28;20019;-75
2024/03/27 00:32:46;;;;;;;3.67;1.00;;;;;;;13.58;100.00;98418.31;5271115;28;20051;-75
2024/03/27 00:35:16;;;;;;;2.03;0.98;;;;;;;13.51;100.00;98425.75;5274213;28;20144;-75
2024/03/27 00:37:47;;;;;;;3.42;0.90;;;;;;;13.55;100.00;98416.09;5271040;28;20462;-75
2024/03/27 00:40:19;;;;;;;2.90;1.08;;;;;;;13.64;100.00;98415.47;5271868;28;20051;-76
2024/03/27 00:42:49;;;;;;;2.53;0.95;;;;;;;13.57;100.00;98411.31;5275910;28;20083;-75
2024/03/27 00:45:20;;;;;;;3.75;1.33;;;;;;;13.54;100.00;98407.22;5270387;28;20418;-75
2024/03/27 00:47:50;;;;;;;2.85;0.95;;;;;;;13.56;100.00;98402.41;5268810;28;20028;-75
2024/03/27 00:50:21;;;;;;;3.78;0.70;;;;;;;13.55;100.00;98395.38;5269436;28;20109;-75
2024/03/27 00:52:51;;;;;;;3.90;0.80;;;;;;;13.64;100.00;98402.00;5271779;28;20020;-75
2024/03/27 00:55:22;;;;;;;1.98;0.70;;;;;;;13.59;100.00;98401.09;5272595;28;20026;-75
2024/03/27 00:57:52;;;;;;;3.35;0.80;;;;;;;13.53;100.00;98392.13;5273816;28;20031;-76
2024/03/27 01:00:24;;;;;;;2.85;1.52;;;;;;;13.60;100.00;98395.44;5273134;28;20088;-75
2024/03/27 01:02:55;;;;;;;4.65;1.00;;;;;;;13.57;100.00;98400.53;5272036;28;20020;-75
2024/03/27 01:05:27;;;;;;;6.32;1.10;;;;;;;13.40;100.00;98398.66;5270669;28;20404;-75
2024/03/27 01:07:58;;;;;;;4.05;1.05;;;;;;;13.37;100.00;98406.41;5270720;28;20020;-75
2024/03/27 01:10:28;;;;;;;2.80;0.90;;;;;;;13.32;100.00;98403.63;5271404;28;20016;-75
2024/03/27 01:12:59;;;;;;;1.35;0.85;;;;;;;13.39;100.00;98406.97;5269180;28;20020;-75
2024/03/27 01:15:30;;;;;;;6.50;1.13;;;;;;;13.33;100.00;98405.25;5271620;28;20024;-75
2024/03/27 01:18:02;;;;;;;5.80;0.70;;;;;;;13.30;100.00;98400.34;5270409;28;20485;-75
2024/03/27 01:20:32;;;;;;;2.15;0.63;;;;;;;13.32;100.00;98392.84;5271197;28;20385;-76
2024/03/27 01:23:03;;;;;;;3.00;0.70;;;;;;;13.11;100.00;98387.09;5272859;28;20024;-75
2024/03/27 01:25:35;;;;;;;2.55;0.70;;;;;;;13.04;100.00;98385.59;5270874;28;20725;-75
2024/03/27 01:28:07;;;;;;;7.45;1.10;;;;;;;12.94;100.00;98396.97;5272834;28;20012;-75
2024/03/27 01:30:37;;;;;;;1.85;0.73;;;;;;;12.90;100.00;98398.50;5268990;28;20081;-75
2024/03/27 01:33:08;;;;;;;6.43;0.90;;;;;;;13.04;100.00;98399.84;5270461;28;20016;-75
2024/03/27 01:35:44;;;;;;;2.22;1.00;;;;;;;12.77;100.00;98399.63;5270149;28;20473;-75
2024/03/27 01:38:14;;;;;;;2.35;0.90;;;;;;;12.99;100.00;98389.00;5269655;28;20046;-75
2024/03/27 01:40:45;;;;;;;1.30;0.80;;;;;;;12.93;100.00;98395.34;5269930;28;20382;-75
2024/03/27 01:43:15;;;;;;;1.65;0.90;;;;;;;12.68;100.00;98398.38;5272528;28;20028;-75
2024/03/27 01:45:46;;;;;;;2.75;1.00;;;;;;;12.55;100.00;98399.50;5269942;28;20028;-75
2024/03/27 01:48:17;;;;;;;4.10;1.30;;;;;;;12.56;100.00;98409.19;5273509;28;20028;-75
2024/03/27 01:50:47;;;;;;;3.50;1.30;;;;;;;12.42;100.00;98397.88;5256214;28;20051;-75
2024/03/27 01:53:19;;;;;;;7.15;1.63;;;;;;;12.60;100.00;98404.13;5271532;28;20427;-75
2024/03/27 01:55:50;;;;;;;2.03;1.27;;;;;;;12.60;100.00;98406.81;5273322;28;20035;-75
2024/03/27 01:58:21;;;;;;;1.90;1.50;;;;;;;12.34;100.00;98402.78;5272684;28;20027;-75
2024/03/27 02:00:52;;;;;;;6.28;1.83;;;;;;;12.46;100.00;98400.09;5270515;28;20020;-75
2024/03/27 02:03:22;;;;;;;1.83;1.50;;;;;;;12.54;100.00;98400.50;5270008;28;20020;-75
2024/03/27 02:05:54;;;;;;;4.55;1.88;;;;;;;12.55;100.00;98402.19;5271085;28;20104;-75
2024/03/27 02:08:34;;;;;;;3.38;1.70;;;;;;;12.43;100.00;98406.75;5272210;28;20027;-75
2024/03/27 02:11:05;;;;;;;4.25;2.13;;;;;;;12.49;100.00;98402.28;5271691;28;20024;-75
2024/03/27 02:13:35;;;;;;;3.75;2.20;;;;;;;12.44;100.00;98397.63;5269145;28;20024;-75
2024/03/27 02:16:06;;;;;;;2.97;2.00;;;;;;;12.48;100.00;98398.78;5271410;28;20032;-75
2024/03/27 02:18:37;;;;;;;3.22;2.17;;;;;;;12.54;100.00;98394.31;5270256;28;21803;-75
2024/03/27 02:21:11;;;;;;;2.35;1.92;;;;;;;12.53;100.00;98390.00;5271739;28;20043;-75
2024/03/27 02:24:03;;;;;;;5.20;2.10;;;;;;;12.51;100.00;98387.56;5269237;28;20022;-75
2024/03/27 02:26:34;;;;;;;3.85;2.47;;;;;;;12.44;100.00;98386.88;5269343;28;20085;-75
2024/03/27 02:29:05;;;;;;;5.45;2.90;;;;;;;12.43;100.00;98374.47;5269406;28;20441;-75
2024/03/27 02:31:35;;;;;;;6.57;3.15;;;;;;;12.40;100.00;98381.16;5270567;28;20016;-75
2024/03/27 02:34:06;;;;;;;4.55;3.00;;;;;;;12.51;100.00;98376.81;5270099;28;20032;-75
2024/03/27 02:36:37;;;;;;;4.63;3.47;;;;;;;12.41;100.00;98379.28;5270029;28;21336;-75
2024/03/27 02:39:08;;;;;;;4.18;2.88;;;;;;;12.43;100.00;98396.00;5270212;28;20024;-75
2024/03/27 02:41:38;;;;;;;7.13;3.08;;;;;;;12.35;100.00;98391.81;5271277;28;20027;-75
2024/03/27 02:44:09;;;;;;;5.00;3.03;;;;;;;12.29;100.00;98405.38;5271707;28;20030;-75
2024/03/27 02:46:39;;;;;;;4.53;2.67;;;;;;;12.11;100.00;98398.28;5270244;28;20086;-75
2024/03/27 02:49:11;;;;;;;4.93;2.92;;;;;;;12.02;100.00;98413.94;5272586;28;20028;-75
2024/03/27 02:51:41;;;;;;;6.55;2.35;;;;;;;12.11;100.00;98417.91;5268248;28;20666;-75
2024/03/27 02:54:12;;;;;;;4.68;2.88;;;;;;;12.12;100.00;98419.53;5268993;28;20043;-75
2024/03/27 02:56:42;;;;;;;4.53;3.15;;;;;;;12.14;100.00;98436.25;5272947;28;20019;-75
2024/03/27 02:59:13;;;;;;;5.57;2.70;;;;;;;11.85;100.00;98437.19;5271503;28;20039;-75
2024/03/27 03:01:43;;;;;;;8.30;3.00;;;;;;;11.72;100.00;98451.63;5267238;28;20741;-75
2024/03/27 03:04:14;;;;;;;3.65;2.50;;;;;;;11.74;100.00;98464.81;5269476;28;20031;-75
2024/03/27 03:06:46;;;;;;;4.90;2.35;;;;;;;11.64;100.00;98471.56;5269439;28;20474;-75
2024/03/27 03:09:18;;;;;;;2.83;2.05;;;;;;;11.57;100.00;98473.56;5273692;28;20050;-74
2024/03/27 03:11:49;;;;;;;2.90;1.85;;;;;;;11.64;100.00;98482.31;5268065;28;20020;-74
2024/03/27 03:14:20;;;;;;;2.58;1.88;;;;;;;11.65;100.00;98478.59;5271103;28;20034;-75
2024/03/27 03:16:51;;;;;;;3.35;1.60;;;;;;;11.56;100.00;98471.09;5271169;28;20028;-74
2024/03/27 03:19:22;;;;;;;2.63;1.92;;;;;;;11.52;100.00;98470.75;5271388;28;20028;-74
2024/03/27 03:21:52;;;;;;;3.15;2.13;;;;;;;11.48;100.00;98466.06;5271142;28;20034;-75
2024/03/27 03:24:23;;;;;;;2.97;2.15;;;;;;;11.49;100.00;98457.75;5268992;28;20016;-74
2024/03/27 03:26:54;;;;;;;4.60;2.40;;;;;;;11.37;100.00;98456.94;5271516;28;20017;-74
2024/03/27 03:29:24;;;;;;;4.85;2.80;;;;;;;11.41;100.00;98452.75;5269710;28;20024;-74
2024/03/27 03:31:57;;;;;;;6.45;2.72;;;;;;;11.35;100.00;98443.75;5271579;28;20240;-74
2024/03/27 03:34:28;;;;;;;5.45;2.97;;;;;;;11.43;100.00;98433.72;5270561;28;20015;-74
2024/03/27 03:37:05;;;;;;;4.88;2.83;;;;;;;11.39;100.00;98430.66;5271287;28;20043;-74
2024/03/27 03:39:39;;;;;;;5.55;2.85;;;;;;;11.35;100.00;98421.47;5267197;28;20027;-74
2024/03/27 03:42:09;;;;;;;6.03;3.25;;;;;;;11.27;100.00;98413.72;5277061;28;20493;-74
2024/03/27 03:44:40;;;;;;;7.13;3.17;;;;;;;11.17;100.00;98416.16;5271193;28;20028;-74
2024/03/27 03:47:10;;;;;;;9.93;3.78;;;;;;;11.12;100.00;98420.34;5271647;28;20032;-74
2024/03/27 03:49:41;;;;;;;6.07;3.63;;;;;;;11.02;100.00;98422.75;5274517;28;20477;-74
2024/03/27 03:52:11;;;;;;;6.90;4.20;;;;;;;11.05;100.00;98413.44;5278898;28;20138;-74
2024/03/27 03:54:42;;;;;;;7.60;4.00;;;;;;;10.97;100.00;98427.97;5277945;28;20030;-74
2024/03/27 03:57:12;;;;;;;6.95;3.78;;;;;;;10.93;100.00;98429.47;5277227;28;20036;-73
2024/03/27 03:59:43;;;;;;;6.63;4.07;;;;;;;10.84;100.00;98422.78;5272979;28;20521;-74
2024/03/27 04:02:13;;;;;;;8.00;4.45;;;;;;;10.82;100.00;98432.94;5275728;28;20047;-74
2024/03/27 04:04:44;;;;;;;7.53;3.90;;;;;;;10.79;100.00;98444.09;5272692;28;20027;-74
2024/03/27 04:07:14;;;;;;;6.65;3.70;;;;;;;10.83;100.00;98447.97;5273059;28;20016;-75
2024/03/27 04:09:45;;;;;;;5.85;3.25;;;;;;;10.68;100.00;98461.78;5273979;28;20050;-75
2024/03/27 04:12:15;;;;;;;9.25;3.58;;;;;;;10.70;100.00;98477.66;5279038;28;20099;-74
2024/03/27 04:14:46;;;;;;;7.40;3.90;;;;;;;10.70;100.00;98475.78;5283689;28;20012;-75
2024/03/27 04:17:16;;;;;;;6.95;3.50;;;;;;;10.72;100.00;98470.19;5275231;28;20537;-74
2024/03/27 04:19:48;;;;;;;8.23;3.58;;;;;;;10.65;100.00;98461.41;5281968;28;20019;-74
2024/03/27 04:22:18;;;;;;;6.95;3.92;;;;;;;10.71;100.00;98457.84;5286460;28;20098;-74
2024/03/27 04:24:49;;;;;;;7.78;4.28;;;;;;;10.67;100.00;98456.63;5274518;28;20666;-74
2024/03/27 04:27:19;;;;;;;10.23;3.47;;;;;;;10.66;100.00;98460.38;5284848;28;20020;-74
2024/03/27 04:29:56;;;;;;;11.77;4.32;;;;;;;10.54;100.00;98458.44;5270042;28;20015;-74
2024/03/27 04:32:27;;;;;;;9.25;4.10;;;;;;;10.52;100.00;98455.16;5271695;28;20632;-74
2024/03/27 04:34:57;;;;;;;7.45;4.30;;;;;;;10.50;100.00;98456.44;5277378;28;20023;-74
2024/03/27 04:37:28;;;;;;;9.02;4.40;;;;;;;10.48;100.00;98463.88;5275966;28;20032;-75
2024/03/27 04:39:59;;;;;;;12.80;5.05;;;;;;;10.40;100.00;98454.28;5282425;28;20016;-75
2024/03/27 04:42:30;;;;;;;13.05;5.15;;;;;;;10.42;100.00;98468.25;5272323;28;20028;-74
2024/03/27 04:45:01;;;;;;;10.98;5.32;;;;;;;10.37;100.00;98452.03;5282878;28;20061;-75
2024/03/27 04:47:31;;;;;;;15.68;6.38;;;;;;;10.41;100.00;98463.94;5277559;27;20110;-75
2024/03/27 04:50:03;;;;;;;19.02;7.40;;;;;;;10.43;100.00;98461.03;5278072;28;20122;-74
2024/03/27 04:52:35;;;;;;;12.40;6.30;;;;;;;10.41;100.00;98469.31;5275765;28;20110;-74
2024/03/27 04:55:06;;;;;;;15.80;6.35;;;;;;;10.40;100.00;98486.44;5278598;28;20028;-74
2024/03/27 04:57:36;;;;;;;15.30;5.85;;;;;;;10.37;100.00;98484.19;5281353;28;20102;-75
2024/03/27 05:00:08;;;;;;;13.98;5.57;;;;;;;10.34;100.00;98500.69;5275933;28;20035;-75
2024/03/27 05:02:39;;;;;;;14.63;5.85;;;;;;;10.36;100.00;98499.44;5279343;28;20607;-75
2024/03/27 05:05:10;;;;;;;12.48;5.65;;;;;;;10.28;100.00;98499.72;5276430;28;20024;-74
2024/03/27 05:07:40;;;;;;;11.93;4.55;;;;;;;10.25;100.00;98510.09;5280914;28;20031;-74
2024/03/27 05:10:11;;;;;;;11.82;4.35;;;;;;;10.20;100.00;98516.09;5276669;28;20055;-74
2024/03/27 05:12:41;;;;;;;9.90;4.32;;;;;;;10.26;100.00;98519.75;5282726;28;20031;-74
2024/03/27 05:15:12;;;;;;;9.55;4.43;;;;;;;10.15;100.00;98507.06;5275064;28;20039;-74
2024/03/27 05:17:42;;;;;;;8.45;3.70;;;;;;;10.22;100.00;98510.50;5280537;28;20104;-74
2024/03/27 05:20:17;;;;;;;10.80;3.60;;;;;;;10.24;100.00;98511.09;5274761;28;20028;-75
2024/03/27 05:22:48;;;;;;;9.07;3.92;;;;;;;10.25;100.00;98518.13;5275855;28;20491;-75
2024/03/27 05:25:19;;;;;;;7.70;3.50;;;;;;;10.23;100.00;98526.34;5276132;28;20023;-74
2024/03/27 05:27:50;;;;;;;7.65;3.70;;;;;;;10.18;100.00;98528.03;5277501;28;20477;-75
2024/03/27 05:30:20;;;;;;;8.95;6.10;;;;;;;10.22;100.00;98518.53;5281055;28;20024;-74
2024/03/27 05:32:51;;;;;;;11.40;6.88;;;;;;;10.24;100.00;98513.78;5276165;28;20443;-75
2024/03/27 05:35:21;;;;;;;7.63;3.22;;;;;;;10.19;100.00;98516.28;5275702;28;20027;-75
2024/03/27 05:37:52;;;;;;;8.77;4.47;;;;;;;10.24;100.00;98524.50;5278526;28;20028;-75
2024/03/27 05:40:24;;;;;;;9.60;4.93;;;;;;;10.21;100.00;98527.63;5265392;28;20528;-75
2024/03/27 05:42:54;;;;;;;8.75;4.55;;;;;;;10.25;100.00;98523.50;5265815;28;20160;-75
2024/03/27 05:45:25;;;;;;;7.28;3.38;;;;;;;10.25;100.00;98520.81;5274310;28;20076;-75
2024/03/27 05:47:55;;;;;;;4.03;2.53;;;;;;;10.25;100.00;98528.84;5273015;28;20024;-75
2024/03/27 05:50:27;;;;;;;8.30;2.72;;;;;;;10.18;100.00;98526.19;5272519;28;20107;-75
2024/03/27 05:52:57;;;;;;;8.02;2.67;;;;;;;10.22;100.00;98518.53;5276700;28;20641;-75
2024/03/27 05:55:28;;;;;;;18.27;9.85;;;;;;;10.25;100.00;98516.28;5270646;28;20031;-74
2024/03/27 05:57:58;;;;;;;8.50;2.30;;;;;;;10.24;100.00;98511.09;5280279;28;20550;-74
2024/03/27 06:00:28;;;;;;;6.45;2.72;;;;;;;10.25;100.00;98508.22;5275842;28;20030;-74
2024/03/27 06:02:59;;;;;;;5.68;2.30;;;;;;;10.26;100.00;98517.09;5269126;28;20465;-75
2024/03/27 06:05:30;;;;;;;4.10;1.80;;;;;;;10.28;100.00;98518.50;5273629;28;20023;-75
2024/03/27 06:08:00;;;;;;;6.05;1.95;;;;;;;10.24;100.00;98521.81;5279243;28;20470;-75
2024/03/27 06:10:31;;;;;;;6.80;1.80;;;;;;;10.16;100.00;98528.28;5271226;28;20027;-75
2024/03/27 06:13:04;;;;;;;4.53;1.98;;;;;;;10.08;100.00;98525.88;5278226;28;20020;-74
2024/03/27 06:15:34;;;;;;;8.52;2.47;;;;;;;10.11;100.00;98534.28;5276326;28;20388;-74
2024/03/27 06:18:05;;;;;;;5.43;2.10;;;;;;;10.13;100.00;98536.75;5270499;28;20016;-74
2024/03/27 06:20:35;;;;;;;4.47;2.00;;;;;;;10.17;100.00;98542.50;5273973;28;20036;-74
2024/03/27 06:23:06;;;;;;;6.95;1.85;;;;;;;10.09;100.00;98557.81;5272010;28;20115;-74
2024/03/27 06:25:36;;;;;;;2.60;1.58;;;;;;;10.17;100.00;98563.91;5273348;28;20674;-74
2024/03/27 06:28:07;;;;;;;4.90;1.98;;;;;;;10.23;100.00;98574.56;5273860;28;20016;-74
2024/03/27 06:30:38;;;;;;;5.70;1.63;;;;;;;10.22;100.00;98570.25;5269112;28;20040;-74
2024/03/27 06:33:09;;;;;;;5.28;1.80;;;;;;;10.23;100.00;98574.56;5272338;28;20028;-74
2024/03/27 06:35:39;;;;;;;2.00;1.30;;;;;;;10.21;100.00;98573.97;5276715;28;20027;-74
2024/03/27 06:38:10;;;;;;;4.18;1.40;;;;;;;10.26;100.00;98562.63;5273002;28;20052;-74
2024/03/27 06:40:41;;;;;;;5.55;1.45;;;;;;;10.34;100.00;98556.97;5276403;28;20578;-74
2024/03/27 06:43:13;;;;;;;4.95;1.30;;;;;;;10.31;100.00;98565.47;5275666;28;20485;-74
2024/03/27 06:45:46;;;;;;;6.20;1.90;;;;;;;10.34;100.00;98565.88;5268564;28;20028;-75
2024/03/27 06:48:16;;;;;;;6.25;2.17;;;;;;;10.35;100.00;98572.03;5274513;28;20024;-74
2024/03/27 06:50:54;;;;;;;5.97;1.92;;;;;;;10.41;100.00;98568.47;5267428;28;20039;-74
2024/03/27 06:53:24;;;;;;;6.82;2.20;;;;;;;10.40;100.00;98569.53;5265380;28;20055;-75
2024/03/27 06:55:55;;;;;;;4.82;2.25;;;;;;;10.47;100.00;98572.13;5276933;28;20453;-74
2024/03/27 06:58:25;;;;;;;5.93;2.53;;;;;;;10.49;100.00;98570.03;5271999;28;20020;-75
2024/03/27 07:00:57;;;;;;;7.35;2.80;;;;;;;10.51;100.00;98576.84;5270930;28;20016;-74
2024/03/27 07:03:28;;;;;;;3.88;2.17;;;;;;;10.47;100.00;98580.19;5272506;28;20084;-74
2024/03/27 07:05:59;;;;;;;4.65;2.28;;;;;;;10.48;100.00;98593.34;5267600;28;20024;-74
2024/03/27 07:08:29;;;;;;;5.85;2.10;;;;;;;10.44;100.00;98592.19;5272237;28;20102;-74
2024/03/27 07:11:02;;;;;;;9.50;2.58;;;;;;;10.35;100.00;98597.00;5268254;28;20012;-74
2024/03/27 07:13:32;;;;;;;5.45;1.85;;;;;;;10.47;100.00;98607.81;5269210;28;20442;-74
2024/03/27 07:16:03;;;;;;;3.72;1.95;;;;;;;10.44;100.00;98608.25;5277259;28;20052;-73
2024/03/27 07:18:34;;;;;;;6.78;2.00;;;;;;;10.36;100.00;98605.84;5273852;28;20408;-75
2024/03/27 07:21:05;;;;;;;4.18;2.00;;;;;;;10.43;100.00;98601.22;5276407;28;20068;-75
2024/03/27 07:23:35;;;;;;;3.47;1.88;;;;;;;10.39;100.00;98600.03;5273950;28;20486;-74
2024/03/27 07:26:07;;;;;;;4.32;1.85;;;;;;;10.42;100.00;98604.97;5268046;28;20019;-74
2024/03/27 07:28:38;;;;;;;6.25;1.85;;;;;;;10.42;100.00;98602.28;5271350;28;20059;-74
2024/03/27 07:31:08;;;;;;;4.47;2.08;;;;;;;10.47;100.00;98605.13;5271502;28;20454;-74
2024/03/27 07:33:38;;;;;;;3.50;1.60;;;;;;;10.50;100.00;98598.50;5276509;28;20076;-74
2024/03/27 07:36:09;;;;;;;2.85;1.90;;;;;;;10.40;100.00;98607.06;5276920;28;20023;-74
2024/03/27 07:38:39;;;;;;;6.90;2.65;;;;;;;10.50;100.00;98599.34;5267000;28;20062;-74
2024/03/27 07:41:10;;;;;;;4.88;2.10;;;;;;;10.41;100.00;98603.31;5272477;28;20380;-75
2024/03/27 07:43:41;;;;;;;3.05;2.20;;;;;;;10.43;100.00;98600.41;5269355;28;20028;-75
2024/03/27 07:46:12;;;;;;;4.68;2.47;;;;;;;10.54;100.00;98595.19;5275142;28;20154;-74
2024/03/27 07:48:44;;;;;;;6.15;2.30;;;;;;;10.45;100.00;98607.22;5272405;28;20060;-75
2024/03/27 07:51:15;;;;;;;4.75;2.20;;;;;;;10.43;100.00;98606.59;5279076;28;20158;-75
2024/03/27 07:53:46;;;;;;;5.90;2.80;;;;;;;10.50;100.00;98593.16;5279148;28;20027;-74
2024/03/27 07:56:17;;;;;;;6.03;2.83;;;;;;;10.47;100.00;98591.72;5281919;28;20051;-74
2024/03/27 07:58:47;;;;;;;4.85;2.13;;;;;;;10.53;100.00;98590.84;5278487;28;20063;-75
2024/03/27 08:01:18;;;;;;;4.25;2.72;;;;;;;10.54;100.00;98592.50;5282980;28;20020;-75
2024/03/27 08:03:48;;;;;;;10.02;3.75;;;;;;;10.54;100.00;98605.91;5274956;28;20032;-74
2024/03/27 08:06:19;;;;;;;8.55;3.42;;;;;;;10.51;100.00;98602.81;5279041;28;20076;-74
2024/03/27 08:08:49;;;;;;;8.50;3.15;;;;;;;10.50;100.00;98602.00;5279298;28;20036;-73
2024/03/27 08:11:22;;;;;;;8.02;3.78;;;;;;;10.38;100.00;98604.56;5282585;28;20035;-75
2024/03/27 08:13:52;;;;;;;5.50;2.97;;;;;;;10.51;100.00;98609.00;5277297;28;20074;-74
2024/03/27 08:16:23;;;;;;;12.35;3.80;;;;;;;10.51;100.00;98619.72;5267118;28;20537;-75
2024/03/27 08:18:53;;;;;;;11.20;4.00;;;;;;;10.57;100.00;98620.72;5272999;28;20023;-75
2024/03/27 08:21:24;;;;;;;6.03;3.22;;;;;;;10.56;100.00;98627.94;5276824;28;20039;-75
2024/03/27 08:23:56;;;;;;;7.43;3.47;;;;;;;10.58;100.00;98625.03;5277251;28;20024;-75
2024/03/27 08:26:27;;;;;;;6.50;2.80;;;;;;;10.65;100.00;98627.66;5274911;28;20608;-74
2024/03/27 08:28:57;;;;;;;6.63;3.60;;;;;;;10.45;100.00;98625.97;5281689;28;20054;-75
2024/03/27 08:31:28;;;;;;;4.13;3.05;;;;;;;10.45;100.00;98625.97;5279875;28;20054;-75
2024/03/27 08:33:58;;;;;;;5.38;3.00;;;;;;;10.69;100.00;98639.56;5271463;28;20406;-75
2024/03/27 08:36:30;;;;;;;9.02;3.42;;;;;;;10.60;100.00;98639.88;5279607;28;20449;-75
2024/03/27 08:39:00;;;;;;;4.60;3.20;;;;;;;10.44;100.00;98634.22;5274969;28;20027;-75
2024/03/27 08:41:31;;;;;;;5.72;3.08;;;;;;;10.52;100.00;98648.19;5276186;28;20020;-75
2024/03/27 08:44:03;;;;;;;6.72;3.03;;;;;;;10.52;100.00;98636.63;5274835;28;20023;-74
2024/03/27 08:46:33;;;;;;;4.93;3.33;;;;;;;10.52;100.00;98642.81;5276138;28;20035;-74
2024/03/27 08:49:05;;;;;;;5.80;3.20;;;;;;;10.57;100.00;98647.53;5275668;28;20017;-75
2024/03/27 08:51:35;;;;;;;7.15;2.95;;;;;;;10.79;100.00;98654.13;5270753;28;20496;-74
2024/03/27 08:54:06;;;;;;;5.07;3.10;;;;;;;11.01;100.00;98645.66;5276193;28;20059;-75
2024/03/27 08:56:36;;;;;;;3.72;2.80;;;;;;;10.84;100.00;98651.63;5278128;28;20026;-74
2024/03/27 08:59:07;;;;;;;6.68;3.15;;;;;;;11.21;100.00;98642.75;5273241;28;20028;-75
2024/03/27 09:01:37;;;;;;;7.40;3.03;;;;;;;11.35;100.00;98657.69;5263228;28;20020;-75
2024/03/27 09:04:08;;;;;;;5.22;2.80;;;;;;;11.33;100.00;98652.50;5268349;28;20031;-74
2024/03/27 09:06:38;;;;;;;4.32;3.25;;;;;;;11.12;100.00;98652.97;5272653;28;20044;-74
2024/03/27 09:09:09;;;;;;;6.13;2.90;;;;;;;11.07;100.00;98661.69;5275430;28;20020;-75
2024/03/27 09:11:39;;;;;;;5.20;3.55;;;;;;;11.28;100.00;98657.72;5274683;28;20024;-75
2024/03/27 09:14:10;;;;;;;6.35;3.58;;;;;;;11.43;100.00;98656.53;5275902;28;20051;-75
2024/03/27 09:16:40;;;;;;;9.35;3.75;;;;;;;11.54;100.00;98656.59;5271636;28;20036;-75
2024/03/27 09:19:11;;;;;;;8.38;4.00;;;;;;;11.61;100.00;98654.66;5267877;28;20057;-74
2024/03/27 09:21:41;;;;;;;10.30;3.90;;;;;;;11.45;100.00;98652.59;5271621;28;20523;-75
2024/03/27 09:24:12;;;;;;;6.13;3.85;;;;;;;11.51;100.00;98667.00;5272748;28;20038;-74
2024/03/27 09:26:43;;;;;;;8.02;3.85;;;;;;;11.47;100.00;98657.75;5270031;28;20489;-74
2024/03/27 09:29:13;;;;;;;7.38;4.22;;;;;;;11.27;100.00;98660.66;5274503;28;20035;-74
2024/03/27 09:31:44;;;;;;;7.72;3.67;;;;;;;11.02;100.00;98650.81;5275230;28;20401;-74
2024/03/27 09:34:17;;;;;;;7.75;3.85;;;;;;;11.22;100.00;98663.19;5271795;28;20076;-74
2024/03/27 09:36:48;;;;;;;9.85;3.70;;;;;;;11.45;100.00;98662.53;5271101;28;20440;-74
2024/03/27 09:39:21;;;;;;;7.70;3.75;;;;;;;11.65;100.00;98660.41;5267528;28;20081;-74
2024/03/27 09:41:52;;;;;;;11.75;3.67;;;;;;;11.57;100.00;98664.22;5271513;28;20028;-74
2024/03/27 09:44:23;;;;;;;5.55;3.88;;;;;;;11.50;100.00;98666.16;5275018;28;20065;-75
2024/03/27 09:46:59;;;;;;;6.28;3.70;;;;;;;11.80;100.00;98668.88;5270733;28;20394;-74
2024/03/27 09:49:29;;;;;;;6.72;3.70;;;;;;;11.71;100.00;98672.13;5271292;28;20024;-75
2024/03/27 09:52:03;;;;;;;8.52;3.78;;;;;;;11.78;100.00;98667.47;5269995;28;20106;-74
2024/03/27 09:54:35;;;;;;;7.70;4.35;;;;;;;11.73;100.00;98672.69;5269518;28;20030;-74
2024/03/27 09:57:05;;;;;;;6.43;4.40;;;;;;;11.90;100.00;98685.31;5276943;28;20030;-74
2024/03/27 09:59:36;;;;;;;6.88;3.85;;;;;;;11.82;100.00;98682.13;5271329;27;20035;-74
2024/03/27 10:02:09;;;;;;;5.70;4.30;;;;;;;11.54;100.00;98701.44;5270807;28;20039;-74
2024/03/27 10:04:40;;;;;;;10.07;4.57;;;;;;;11.41;100.00;98697.03;5259369;28;20378;-75
2024/03/27 10:07:11;;;;;;;10.02;4.05;;;;;;;11.38;100.00;98703.66;5272045;28;20016;-75
2024/03/27 10:09:41;;;;;;;6.57;3.95;;;;;;;11.25;100.00;98709.19;5266689;28;20081;-75
2024/03/27 10:12:12;;;;;;;7.03;3.78;;;;;;;11.26;100.00;98705.47;5268823;28;20025;-75
2024/03/27 10:14:42;;;;;;;11.57;5.25;;;;;;;11.29;100.00;98699.63;5263511;28;20020;-75
2024/03/27 10:17:13;;;;;;;6.95;4.30;;;;;;;11.50;100.00;98689.53;5268345;28;20028;-74
2024/03/27 10:19:43;;;;;;;7.18;3.80;;;;;;;11.58;100.00;98694.56;5266387;28;20024;-75
2024/03/27 10:22:14;;;;;;;9.00;4.32;;;;;;;11.55;100.00;98701.22;5271069;28;20036;-74
2024/03/27 10:24:44;;;;;;;7.80;3.50;;;;;;;11.82;100.00;98717.03;5265294;28;20053;-75
2024/03/27 10:27:15;;;;;;;5.82;3.75;;;;;;;11.79;100.00;98707.53;5263458;28;20022;-74
2024/03/27 10:29:45;;;;;;;6.80;4.15;;;;;;;11.92;100.00;98722.69;5266320;28;20024;-74
2024/03/27 10:32:16;;;;;;;5.80;4.18;;;;;;;11.95;100.00;98727.63;5266323;28;20019;-74
2024/03/27 10:34:48;;;;;;;6.95;3.67;;;;;;;11.60;100.00;98717.47;5263809;28;20501;-74
2024/03/27 10:37:20;;;;;;;6.85;4.05;;;;;;;11.53;100.00;98722.09;5268555;28;20028;-74
2024/03/27 10:39:51;;;;;;;8.32;4.10;;;;;;;11.50;100.00;98724.44;5268907;28;20027;-74
2024/03/27 10:42:23;;;;;;;8.32;3.90;;;;;;;11.64;100.00;98736.63;5268414;27;20075;-75
2024/03/27 10:44:55;;;;;;;4.97;3.60;;;;;;;11.70;100.00;98724.16;5266863;28;20024;-74
2024/03/27 10:47:31;;;;;;;7.55;4.07;;;;;;;11.78;100.00;98724.69;5266583;28;20039;-75
2024/03/27 10:50:04;;;;;;;7.13;3.90;;;;;;;11.67;100.00;98707.47;5264602;28;20020;-74
2024/03/27 10:52:35;;;;;;;6.00;3.80;;;;;;;11.88;100.00;98713.44;5266503;28;20110;-74
2024/03/27 10:55:07;;;;;;;4.45;3.30;;;;;;;11.99;100.00;98725.28;5266986;28;20577;-74
2024/03/27 10:57:38;;;;;;;5.60;4.05;;;;;;;12.18;100.00;98729.56;5271294;28;20027;-74
2024/03/27 11:00:12;;;;;;;6.07;4.10;;;;;;;11.98;100.00;98726.34;5264585;28;20024;-74
2024/03/27 11:02:50;;;;;;;11.10;4.55;;;;;;;12.13;100.00;98713.31;5265758;28;20071;-75
2024/03/27 11:05:21;;;;;;;5.32;3.50;;;;;;;12.18;100.00;98718.81;5267217;28;20035;-74
2024/03/27 11:07:52;;;;;;;8.70;3.97;;;;;;;12.19;100.00;98715.91;5262432;28;20473;-75
2024/03/27 11:10:23;;;;;;;5.45;3.15;;;;;;;12.35;100.00;98710.94;5271573;28;20023;-74
2024/03/27 11:13:00;;;;;;;8.35;3.88;;;;;;;12.45;100.00;98711.22;5250442;28;20024;-74
2024/03/27 11:15:32;;;;;;;8.98;3.50;;;;;;;12.70;100.00;98686.78;5265105;28;20026;-75
2024/03/27 11:18:03;;;;;;;9.23;3.90;;;;;;;12.82;100.00;98689.50;5269836;28;20031;-74
2024/03/27 11:20:33;;;;;;;7.20;3.75;;;;;;;13.31;100.00;98698.19;5266766;28;20062;-74
2024/03/27 11:23:05;;;;;;;5.55;3.08;;;;;;;13.42;100.00;98697.34;5265820;28;20404;-76
2024/03/27 11:25:35;;;;;;;5.38;2.97;;;;;;;13.55;100.00;98691.69;5267140;28;20046;-75
2024/03/27 11:28:16;;;;;;;7.05;3.28;;;;;;;13.26;100.00;98692.69;5270089;28;20017;-75
2024/03/27 11:30:47;;;;;;;4.85;3.45;;;;;;;13.41;100.00;98679.56;5265953;28;20509;-74
2024/03/27 11:33:18;;;;;;;5.25;3.40;;;;;;;13.31;100.00;98684.72;5268703;28;20027;-75
2024/03/27 11:35:49;;;;;;;6.10;3.30;;;;;;;13.00;100.00;98678.59;5259707;28;20020;-74
2024/03/27 11:38:21;;;;;;;5.93;3.10;;;;;;;12.69;100.00;98669.81;5268435;28;20034;-74
2024/03/27 11:40:53;;;;;;;5.47;3.55;;;;;;;12.95;100.00;98665.88;5265117;28;20030;-74